createdAt,value
2023-01-17T00:01:28.872Z,92228.25
2023-01-17T00:04:15.406Z,92225.84
2023-01-17T00:07:00.384Z,92223.44
2023-01-17T00:09:45.259Z,92213.25
2023-01-17T00:12:12.950Z,92232.81
2023-01-17T00:14:40.532Z,92225.31
2023-01-17T00:17:08.170Z,92236.34
2023-01-17T00:19:54.452Z,92246.25
2023-01-17T00:22:41.884Z,92253.25
2023-01-17T00:25:29.393Z,92250.31
2023-01-17T00:27:55.950Z,92240.94
2023-01-17T00:30:22.873Z,92246.03
2023-01-17T00:32:49.533Z,92259.69
2023-01-17T00:35:18.195Z,92265.06
2023-01-17T00:37:44.849Z,92265.31
2023-01-17T00:40:12.079Z,92266.41
2023-01-17T00:42:38.771Z,92275.19
2023-01-17T00:45:24.636Z,92271.16
2023-01-17T00:48:09.560Z,92268.19
2023-01-17T00:50:56.617Z,92276.72
2023-01-17T00:53:41.764Z,92284.72
2023-01-17T00:56:27.095Z,92282.88
2023-01-17T00:59:13.357Z,92281.25
2023-01-17T01:01:58.650Z,92284.72
2023-01-17T01:04:44.219Z,92283.09
2023-01-17T01:07:30.573Z,92286.81
2023-01-17T01:10:15.771Z,92288.19
2023-01-17T01:13:01.167Z,92291.69
2023-01-17T01:15:46.184Z,92285.50
2023-01-17T01:18:31.288Z,92297.28
2023-01-17T01:21:21.009Z,92297.28
2023-01-17T01:24:07.462Z,92297.28
2023-01-17T01:26:52.753Z,92290.81
2023-01-17T01:29:38.004Z,92287.31
2023-01-17T01:32:23.561Z,92285.16
2023-01-17T01:34:51.285Z,92290.72
2023-01-17T01:37:18.912Z,92287.75
2023-01-17T01:39:47.964Z,92295.78
2023-01-17T01:42:16.521Z,92287.44
2023-01-17T01:44:47.556Z,92286.91
2023-01-17T01:47:18.243Z,92281.25
2023-01-17T01:49:45.875Z,92278.88
2023-01-17T01:52:13.618Z,92270.56
2023-01-17T01:54:44.521Z,92281.00
2023-01-17T01:57:15.895Z,92272.38
2023-01-17T01:59:47.982Z,92273.50
2023-01-17T02:02:15.679Z,92274.00
2023-01-17T02:04:44.021Z,92265.97
2023-01-17T02:07:14.240Z,92272.63
2023-01-17T02:09:42.004Z,92267.53
2023-01-17T02:12:10.323Z,92265.88
2023-01-17T02:14:39.394Z,92266.38
2023-01-17T02:17:20.508Z,92273.63
2023-01-17T02:20:08.327Z,92275.47
2023-01-17T02:23:08.148Z,92267.38
2023-01-17T02:25:52.609Z,92263.41
2023-01-17T02:28:34.618Z,92263.41
2023-01-17T02:31:05.943Z,92259.59
2023-01-17T02:33:37.139Z,92263.84
2023-01-17T02:36:10.217Z,92261.44
2023-01-17T02:38:45.159Z,92260.00
2023-01-17T02:41:17.877Z,92265.84
2023-01-17T02:43:45.808Z,92257.56
2023-01-17T02:46:14.960Z,92250.13
2023-01-17T02:48:42.821Z,92252.28
2023-01-17T02:51:36.718Z,92250.66
2023-01-17T02:54:21.533Z,92254.16
2023-01-17T02:56:57.504Z,92243.44
2023-01-17T02:59:35.000Z,92253.59
2023-01-17T03:02:12.208Z,92249.59
2023-01-17T03:04:44.907Z,92248.53
2023-01-17T03:07:16.426Z,92244.25
2023-01-17T03:09:45.897Z,92246.66
2023-01-17T03:12:14.058Z,92248.28
2023-01-17T03:14:41.714Z,92259.00
2023-01-17T03:17:10.741Z,92260.84
2023-01-17T03:19:38.430Z,92258.41
2023-01-17T03:22:06.108Z,92260.84
2023-01-17T03:24:33.797Z,92258.69
2023-01-17T03:27:01.411Z,92254.94
2023-01-17T03:29:29.054Z,92261.94
2023-01-17T03:31:56.798Z,92259.81
2023-01-17T03:34:25.978Z,92255.53
2023-01-17T03:36:53.659Z,92258.19
2023-01-17T03:39:21.349Z,92271.00
2023-01-17T03:41:49.049Z,92263.25
2023-01-17T03:44:16.661Z,92258.94
2023-01-17T03:46:44.589Z,92259.75
2023-01-17T03:49:12.289Z,92264.56
2023-01-17T03:51:41.260Z,92267.22
2023-01-17T03:54:09.303Z,92263.19
2023-01-17T03:56:37.032Z,92266.13
2023-01-17T03:59:04.780Z,92260.78
2023-01-17T04:01:32.589Z,92261.59
2023-01-17T04:04:00.369Z,92267.19
2023-01-17T04:06:28.436Z,92263.97
2023-01-17T04:08:57.468Z,92254.78
2023-01-17T04:11:25.265Z,92256.38
2023-01-17T04:13:52.875Z,92256.88
2023-01-17T04:16:21.139Z,92256.56
2023-01-17T04:18:48.809Z,92261.63
2023-01-17T04:21:16.476Z,92261.28
2023-01-17T04:23:44.156Z,92260.97
2023-01-17T04:26:13.712Z,92261.47
2023-01-17T04:28:41.341Z,92257.44
2023-01-17T04:31:10.356Z,92257.69
2023-01-17T04:33:38.027Z,92257.94
2023-01-17T04:36:07.625Z,92255.50
2023-01-17T04:38:35.771Z,92257.63
2023-01-17T04:41:03.484Z,92252.78
2023-01-17T04:43:32.616Z,92247.91
2023-01-17T04:46:00.247Z,92257.56
2023-01-17T04:48:28.301Z,92255.16
2023-01-17T04:51:00.659Z,92257.03
2023-01-17T04:53:28.808Z,92259.13
2023-01-17T04:55:56.426Z,92265.00
2023-01-17T04:58:24.226Z,92261.72
2023-01-17T05:00:53.350Z,92264.66
2023-01-17T05:03:22.998Z,92278.03
2023-01-17T05:05:50.776Z,92278.28
2023-01-17T05:08:18.630Z,92276.66
2023-01-17T05:10:46.897Z,92286.56
2023-01-17T05:13:15.452Z,92284.13
2023-01-17T05:15:43.574Z,92284.06
2023-01-17T05:18:15.352Z,92283.00
2023-01-17T05:20:43.726Z,92288.34
2023-01-17T05:23:12.071Z,92294.53
2023-01-17T05:25:44.548Z,92294.00
2023-01-17T05:28:12.866Z,92293.75
2023-01-17T05:30:40.623Z,92294.84
2023-01-17T05:33:10.225Z,92300.97
2023-01-17T05:35:39.612Z,92299.69
2023-01-17T05:38:07.406Z,92301.84
2023-01-17T05:40:35.388Z,92302.44
2023-01-17T05:43:04.080Z,92310.69
2023-01-17T05:45:33.304Z,92310.44
2023-01-17T05:48:01.299Z,92310.69
2023-01-17T05:50:30.685Z,92311.75
2023-01-17T05:53:01.658Z,92317.34
2023-01-17T05:55:29.975Z,92310.94
2023-01-17T05:57:57.905Z,92310.94
2023-01-17T06:00:25.823Z,92308.28
2023-01-17T06:02:54.724Z,92305.59
2023-01-17T06:05:23.340Z,92299.69
2023-01-17T06:07:51.616Z,92287.38
2023-01-17T06:10:22.267Z,92280.63
2023-01-17T06:12:50.269Z,92273.44
2023-01-17T06:15:19.433Z,92273.94
2023-01-17T06:17:47.128Z,92274.41
2023-01-17T06:20:14.767Z,92279.22
2023-01-17T06:22:42.571Z,92269.81
2023-01-17T06:25:10.869Z,92273.78
2023-01-17T06:27:40.065Z,92268.88
2023-01-17T06:30:09.063Z,92271.72
2023-01-17T06:32:36.742Z,92274.31
2023-01-17T06:35:04.403Z,92281.19
2023-01-17T06:37:32.241Z,92277.41
2023-01-17T06:39:59.979Z,92280.81
2023-01-17T06:42:27.619Z,92286.41
2023-01-17T06:44:56.743Z,92287.44
2023-01-17T06:47:24.416Z,92291.19
2023-01-17T06:49:52.181Z,92294.81
2023-01-17T06:52:19.971Z,92292.88
2023-01-17T06:54:47.709Z,92279.69
2023-01-17T06:57:15.380Z,92286.09
2023-01-17T06:59:43.193Z,92274.84
2023-01-17T07:02:13.230Z,92281.00
2023-01-17T07:04:41.035Z,92283.09
2023-01-17T07:07:08.831Z,92286.56
2023-01-17T07:09:36.506Z,92280.44
2023-01-17T07:12:04.577Z,92285.78
2023-01-17T07:14:32.708Z,92274.50
2023-01-17T07:17:00.403Z,92279.84
2023-01-17T07:19:29.460Z,92284.38
2023-01-17T07:21:57.121Z,92283.59
2023-01-17T07:24:24.831Z,92285.34
2023-01-17T07:26:53.410Z,92281.56
2023-01-17T07:29:21.174Z,92271.69
2023-01-17T07:31:49.932Z,92272.75
2023-01-17T07:34:17.706Z,92264.34
2023-01-17T07:36:48.553Z,92257.19
2023-01-17T07:39:16.382Z,92246.34
2023-01-17T07:41:44.229Z,92245.03
2023-01-17T07:44:12.202Z,92242.13
2023-01-17T07:46:40.004Z,92239.50
2023-01-17T07:49:07.975Z,92236.13
2023-01-17T07:51:36.169Z,92231.44
2023-01-17T07:54:05.415Z,92231.25
2023-01-17T07:56:34.812Z,92232.13
2023-01-17T07:59:02.615Z,92223.38
2023-01-17T08:01:30.645Z,92239.47
2023-01-17T08:03:58.487Z,92241.06
2023-01-17T08:06:27.728Z,92238.41
2023-01-17T08:08:57.137Z,92228.28
2023-01-17T08:11:26.438Z,92224.03
2023-01-17T08:13:57.409Z,92226.22
2023-01-17T08:16:25.780Z,92236.94
2023-01-17T08:18:54.011Z,92232.94
2023-01-17T08:21:21.638Z,92232.69
2023-01-17T08:23:49.906Z,92227.91
2023-01-17T08:26:22.383Z,92228.22
2023-01-17T08:28:56.321Z,92233.38
2023-01-17T08:31:24.177Z,92229.16
2023-01-17T08:33:51.990Z,92232.13
2023-01-17T08:36:19.804Z,92231.94
2023-01-17T08:38:47.557Z,92223.16
2023-01-17T08:41:15.290Z,92223.78
2023-01-17T08:43:43.117Z,92231.84
2023-01-17T08:46:12.293Z,92220.94
2023-01-17T08:48:40.062Z,92216.28
2023-01-17T08:51:07.904Z,92221.47
2023-01-17T08:53:35.817Z,92208.97
2023-01-17T08:56:05.717Z,92215.53
2023-01-17T08:58:34.222Z,92221.50
2023-01-17T09:01:03.592Z,92221.03
2023-01-17T09:03:34.033Z,92219.72
2023-01-17T09:06:03.366Z,92221.94
2023-01-17T09:08:31.754Z,92214.97
2023-01-17T09:10:59.534Z,92215.53
2023-01-17T09:13:27.255Z,92225.47
2023-01-17T09:15:57.697Z,92223.91
2023-01-17T09:18:25.814Z,92219.94
2023-01-17T09:20:59.110Z,92210.63
2023-01-17T09:23:28.296Z,92214.38
2023-01-17T09:25:56.645Z,92211.72
2023-01-17T09:28:24.615Z,92208.28
2023-01-17T09:30:53.786Z,92205.38
2023-01-17T09:33:23.286Z,92196.81
2023-01-17T09:35:51.317Z,92177.59
2023-01-17T09:38:21.792Z,92186.78
2023-01-17T09:40:50.009Z,92184.41
2023-01-17T09:43:23.330Z,92180.44
2023-01-17T09:45:51.468Z,92176.16
2023-01-17T09:48:24.320Z,92158.72
2023-01-17T09:50:55.572Z,92143.41
2023-01-17T09:53:24.903Z,92125.97
2023-01-17T09:55:55.724Z,92118.19
2023-01-17T09:58:27.230Z,92109.88
2023-01-17T10:01:00.325Z,92112.28
2023-01-17T10:03:47.706Z,92109.03
2023-01-17T10:06:23.940Z,92101.22
2023-01-17T10:09:10.297Z,92092.91
2023-01-17T10:11:48.507Z,92089.38
2023-01-17T10:14:39.201Z,92101.97
2023-01-17T10:17:13.611Z,92100.34
2023-01-17T10:19:52.538Z,92102.47
2023-01-17T10:22:34.904Z,92096.25
2023-01-17T10:25:15.943Z,92105.75
2023-01-17T10:27:48.574Z,92107.91
2023-01-17T10:30:24.313Z,92098.22
2023-01-17T10:32:52.209Z,92098.19
2023-01-17T10:35:24.799Z,92086.06
2023-01-17T10:37:56.711Z,92082.78
2023-01-17T10:40:41.917Z,92082.22
2023-01-17T10:43:16.042Z,92080.34
2023-01-17T10:45:51.916Z,92092.38
2023-01-17T10:48:23.890Z,92084.34
2023-01-17T10:50:58.670Z,92077.47
2023-01-17T10:53:39.473Z,92067.56
2023-01-17T10:56:09.043Z,92065.41
2023-01-17T10:58:36.817Z,92062.97
2023-01-17T11:01:08.876Z,92053.50
2023-01-17T11:03:36.574Z,92056.22
2023-01-17T11:06:19.201Z,92049.97
2023-01-17T11:08:52.421Z,92044.34
2023-01-17T11:11:22.162Z,92032.78
2023-01-17T11:13:50.114Z,92026.63
2023-01-17T11:16:21.126Z,92020.16
2023-01-17T11:18:50.821Z,92007.53
2023-01-17T11:21:23.301Z,92002.72
2023-01-17T11:23:53.264Z,92010.78
2023-01-17T11:26:27.355Z,92008.09
2023-01-17T11:29:14.977Z,92010.75
2023-01-17T11:31:42.716Z,92010.47
2023-01-17T11:34:16.651Z,91998.69
2023-01-17T11:36:44.534Z,92004.28
2023-01-17T11:39:27.588Z,92003.47
2023-01-17T11:41:56.846Z,91997.81
2023-01-17T11:44:26.710Z,92000.97
2023-01-17T11:47:17.081Z,91995.88
2023-01-17T11:49:46.349Z,91985.22
2023-01-17T11:52:19.939Z,91989.00
2023-01-17T11:54:48.409Z,91989.59
2023-01-17T11:57:22.693Z,91987.94
2023-01-17T11:59:50.613Z,91968.59
2023-01-17T12:02:34.873Z,91970.25
2023-01-17T12:05:17.407Z,91956.53
2023-01-17T12:07:49.618Z,91958.19
2023-01-17T12:10:22.360Z,91935.34
2023-01-17T12:13:25.286Z,91942.09
2023-01-17T12:16:01.736Z,91933.47
2023-01-17T12:18:35.187Z,91914.66
2023-01-17T12:21:14.521Z,91921.94
2023-01-17T12:23:55.616Z,91917.56
2023-01-17T12:26:31.688Z,91910.59
2023-01-17T12:29:35.647Z,91910.06
2023-01-17T12:32:14.292Z,91896.09
2023-01-17T12:34:47.065Z,91889.06
2023-01-17T12:37:20.472Z,91889.34
2023-01-17T12:39:52.796Z,91892.09
2023-01-17T12:42:24.091Z,91883.78
2023-01-17T12:44:57.863Z,91878.38
2023-01-17T12:47:26.482Z,91873.78
2023-01-17T12:49:59.394Z,91870.91
2023-01-17T12:52:42.486Z,91862.03
2023-01-17T12:55:15.232Z,91855.84
2023-01-17T12:57:46.656Z,91851.81
2023-01-17T13:00:19.633Z,91847.31
2023-01-17T13:02:51.510Z,91845.97
2023-01-17T13:05:23.645Z,91838.72
2023-01-17T13:07:56.360Z,91837.63
2023-01-17T13:10:31.853Z,91841.97
2023-01-17T13:13:04.819Z,91831.72
2023-01-17T13:15:38.575Z,91832.00
2023-01-17T13:18:10.681Z,91824.97
2023-01-17T13:20:43.699Z,91817.16
2023-01-17T13:23:14.289Z,91811.78
2023-01-17T13:25:46.288Z,91810.13
2023-01-17T13:28:19.657Z,91805.75
2023-01-17T13:31:19.773Z,91803.50
2023-01-17T13:34:10.933Z,91808.53
2023-01-17T13:36:57.789Z,91800.41
2023-01-17T13:39:35.354Z,91792.78
2023-01-17T13:42:11.784Z,91788.56
2023-01-17T13:44:39.683Z,91788.75
2023-01-17T13:47:40.400Z,91787.38
2023-01-17T13:50:46.926Z,91773.88
2023-01-17T13:53:57.525Z,91779.53
2023-01-17T13:56:28.813Z,91760.56
2023-01-17T13:58:58.702Z,91767.34
2023-01-17T14:01:54.422Z,91760.38
2023-01-17T14:05:05.553Z,91753.19
2023-01-17T14:07:33.817Z,91755.69
2023-01-17T14:10:01.836Z,91754.19
2023-01-17T14:12:32.902Z,91742.63
2023-01-17T14:15:05.835Z,91743.09
2023-01-17T14:17:58.903Z,91738.28
2023-01-17T14:21:02.917Z,91731.84
2023-01-17T14:23:34.551Z,91718.72
2023-01-17T14:26:17.221Z,91725.97
2023-01-17T14:28:44.945Z,91718.28
2023-01-17T14:31:14.032Z,91726.38
2023-01-17T14:33:42.795Z,91732.00
2023-01-17T14:36:22.100Z,91727.22
2023-01-17T14:38:49.786Z,91727.50
2023-01-17T14:41:21.073Z,91726.22
2023-01-17T14:43:49.651Z,91724.03
2023-01-17T14:46:22.586Z,91720.31
2023-01-17T14:48:50.724Z,91718.75
2023-01-17T14:51:22.958Z,91719.78
2023-01-17T14:53:55.443Z,91709.00
2023-01-17T14:56:26.855Z,91703.63
2023-01-17T14:59:14.417Z,91702.06
2023-01-17T15:01:42.722Z,91700.47
2023-01-17T15:04:22.589Z,91702.34
2023-01-17T15:06:51.886Z,91705.13
2023-01-17T15:09:21.544Z,91707.53
2023-01-17T15:11:52.202Z,91710.78
2023-01-17T15:14:22.566Z,91703.28
2023-01-17T15:16:52.004Z,91703.00
2023-01-17T15:19:20.918Z,91699.22
2023-01-17T15:21:52.662Z,91701.38
2023-01-17T15:24:21.982Z,91692.00
2023-01-17T15:26:50.187Z,91694.97
2023-01-17T15:29:22.520Z,91690.16
2023-01-17T15:31:51.824Z,91686.66
2023-01-17T15:34:25.223Z,91680.97
2023-01-17T15:36:56.889Z,91668.16
2023-01-17T15:39:25.618Z,91671.38
2023-01-17T15:41:54.535Z,91670.84
2023-01-17T15:44:31.138Z,91671.19
2023-01-17T15:47:04.621Z,91672.25
2023-01-17T15:49:32.711Z,91664.25
2023-01-17T15:52:16.107Z,91673.31
2023-01-17T15:54:47.464Z,91665.56
2023-01-17T15:57:25.964Z,91673.31
2023-01-17T15:59:59.508Z,91674.69
2023-01-17T16:02:36.525Z,91675.78
2023-01-17T16:05:21.142Z,91678.22
2023-01-17T16:07:51.048Z,91685.19
2023-01-17T16:10:20.289Z,91676.88
2023-01-17T16:12:48.709Z,91681.41
2023-01-17T16:15:18.332Z,91677.13
2023-01-17T16:17:48.834Z,91678.22
2023-01-17T16:20:22.410Z,91673.41
2023-01-17T16:22:52.198Z,91677.13
2023-01-17T16:25:21.872Z,91680.34
2023-01-17T16:27:50.076Z,91687.06
2023-01-17T16:30:19.571Z,91683.81
2023-01-17T16:32:48.838Z,91688.41
2023-01-17T16:35:20.719Z,91707.16
2023-01-17T16:37:52.320Z,91704.19
2023-01-17T16:40:21.151Z,91713.56
2023-01-17T16:42:48.821Z,91717.06
2023-01-17T16:45:17.431Z,91725.38
2023-01-17T16:47:46.439Z,91730.19
2023-01-17T16:50:15.496Z,91729.13
2023-01-17T16:52:43.377Z,91714.09
2023-01-17T16:55:15.265Z,91718.91
2023-01-17T16:57:43.109Z,91718.13
2023-01-17T17:00:12.534Z,91724.81
2023-01-17T17:02:40.760Z,91736.38
2023-01-17T17:05:09.625Z,91753.00
2023-01-17T17:07:42.663Z,91751.38
2023-01-17T17:10:14.032Z,91752.19
2023-01-17T17:12:41.726Z,91758.63
2023-01-17T17:15:10.219Z,91756.47
2023-01-17T17:17:38.289Z,91759.66
2023-01-17T17:20:07.798Z,91752.72
2023-01-17T17:22:35.434Z,91749.50
2023-01-17T17:25:03.220Z,91735.81
2023-01-17T17:27:32.355Z,91745.44
2023-01-17T17:30:00.167Z,91741.41
2023-01-17T17:32:29.262Z,91741.41
2023-01-17T17:34:57.064Z,91742.50
2023-01-17T17:37:28.830Z,91745.69
2023-01-17T17:39:57.339Z,91745.69
2023-01-17T17:42:26.308Z,91739.25
2023-01-17T17:44:55.357Z,91746.78
2023-01-17T17:47:30.648Z,91747.31
2023-01-17T17:49:58.566Z,91739.81
2023-01-17T17:52:34.411Z,91744.69
2023-01-17T17:58:23.999Z,91727.25
2023-01-17T18:00:53.308Z,91732.88
2023-01-17T18:03:44.903Z,91743.34
2023-01-17T18:06:29.646Z,91748.94
2023-01-17T18:09:10.312Z,91752.97
2023-01-17T18:11:39.865Z,91763.97
2023-01-17T18:14:09.541Z,91783.81
2023-01-17T18:16:41.602Z,91792.41
2023-01-17T18:19:09.661Z,91792.41
2023-01-17T18:21:39.042Z,91796.97
2023-01-17T18:24:09.084Z,91798.63
2023-01-17T18:26:38.581Z,91804.53
2023-01-17T18:29:09.691Z,91796.72
2023-01-17T18:31:39.203Z,91815.50
2023-01-17T18:34:09.149Z,91816.31
2023-01-17T18:36:37.348Z,91834.00
2023-01-17T18:39:06.401Z,91835.34
2023-01-17T18:41:34.702Z,91836.94
2023-01-17T18:44:04.888Z,91847.94
2023-01-17T18:46:32.734Z,91854.63
2023-01-17T18:49:01.870Z,91859.47
2023-01-17T18:51:31.885Z,91865.34
2023-01-17T18:54:05.340Z,91879.28
2023-01-17T18:56:35.176Z,91872.59
2023-01-17T18:59:05.719Z,91871.25
2023-01-17T19:01:35.859Z,91874.75
2023-01-17T19:04:06.693Z,91879.84
2023-01-17T19:06:36.095Z,91864.84
2023-01-17T19:16:12.443Z,91888.94
2023-01-17T19:18:40.339Z,91888.44
2023-01-17T19:21:10.915Z,91887.34
2023-01-17T19:23:39.085Z,91882.22
2023-01-17T19:26:08.216Z,91888.91
2023-01-17T19:28:38.653Z,91888.88
2023-01-17T19:31:07.814Z,91888.88
2023-01-17T19:33:36.355Z,91896.13
2023-01-17T19:36:09.379Z,91898.56
2023-01-17T19:38:39.153Z,91900.97
2023-01-17T19:41:16.203Z,91904.19
2023-01-17T19:44:48.417Z,91902.88
2023-01-17T19:47:26.926Z,91901.81
2023-01-17T19:50:42.133Z,91912.25
2023-01-17T19:53:11.490Z,91898.31
2023-01-17T19:55:41.612Z,91898.56
2023-01-17T19:58:09.392Z,91900.72
2023-01-17T20:00:46.210Z,91898.56
2023-01-17T20:03:14.788Z,91899.09
2023-01-17T20:05:42.648Z,91902.59
2023-01-17T20:08:11.172Z,91900.44
2023-01-17T20:10:38.820Z,91893.72
2023-01-17T20:13:07.753Z,91896.91
2023-01-17T20:15:35.388Z,91894.47
2023-01-17T20:18:03.653Z,91887.28
2023-01-17T20:20:32.870Z,91900.66
2023-01-17T20:23:01.555Z,91892.88
2023-01-17T20:25:29.191Z,91884.03
2023-01-17T20:27:57.141Z,91892.88
2023-01-17T20:30:33.006Z,91899.03
2023-01-17T20:33:01.683Z,91903.31
2023-01-17T20:35:31.212Z,91894.97
2023-01-17T20:38:03.005Z,91905.69
2023-01-17T20:40:30.741Z,91908.63
2023-01-17T20:43:03.667Z,91902.22
2023-01-17T20:45:37.190Z,91903.00
2023-01-17T20:48:07.605Z,91907.06
2023-01-17T20:50:37.863Z,91908.09
2023-01-17T20:55:48.479Z,91908.63
2023-01-17T20:58:16.271Z,91910.78
2023-01-17T21:00:48.267Z,91913.47
2023-01-17T21:03:16.069Z,91904.38
2023-01-17T21:05:43.768Z,91906.78
2023-01-17T21:08:17.161Z,91904.38
2023-01-17T21:10:48.281Z,91897.41
2023-01-17T21:13:16.690Z,91902.75
2023-01-17T21:15:47.333Z,91898.22
2023-01-17T21:18:16.623Z,91890.44
2023-01-17T21:20:44.831Z,91885.88
2023-01-17T21:23:18.095Z,91898.50
2023-01-17T21:25:57.095Z,91896.88
2023-01-17T21:28:26.008Z,91894.47
2023-01-17T21:30:55.707Z,91903.28
2023-01-17T21:33:24.963Z,91903.03
2023-01-17T21:35:53.279Z,91905.44
2023-01-17T21:38:21.235Z,91912.41
2023-01-17T21:40:49.165Z,91907.59
2023-01-17T21:43:18.726Z,91906.78
2023-01-17T21:45:47.814Z,91905.97
2023-01-17T21:48:21.812Z,91909.22
2023-01-17T21:50:53.988Z,91916.41
2023-01-17T21:53:24.232Z,91907.59
2023-01-17T21:56:09.931Z,91911.63
2023-01-17T21:58:46.486Z,91910.78
2023-01-17T22:01:18.081Z,91914.56
2023-01-17T22:03:51.409Z,91916.41
2023-01-17T22:06:21.852Z,91922.84
2023-01-17T22:08:49.897Z,91922.31
2023-01-17T22:11:19.687Z,91932.22
2023-01-17T22:13:47.994Z,91931.66
2023-01-17T22:16:17.603Z,91937.53
2023-01-17T22:18:48.338Z,91938.06
2023-01-17T22:21:17.328Z,91943.94
2023-01-17T22:23:47.304Z,91942.59
2023-01-17T22:26:15.272Z,91942.84
2023-01-17T22:28:43.670Z,91937.22
2023-01-17T22:31:13.317Z,91941.47
2023-01-17T22:33:42.843Z,91948.44
2023-01-17T22:36:13.891Z,91939.63
2023-01-17T22:38:42.513Z,91942.84
2023-01-17T22:41:13.262Z,91946.31
2023-01-17T22:43:43.356Z,91947.13
2023-01-17T22:46:14.165Z,91942.84
2023-01-17T22:48:42.769Z,91953.81
2023-01-17T22:51:13.638Z,91951.09
2023-01-17T22:53:42.095Z,91952.97
2023-01-17T22:56:13.513Z,91950.56
2023-01-17T22:58:44.968Z,91950.31
2023-01-17T23:01:14.359Z,91954.03
2023-01-17T23:03:42.919Z,91946.28
2023-01-17T23:06:14.741Z,91959.38
2023-01-17T23:08:44.758Z,91956.19
2023-01-17T23:11:42.602Z,91947.66
2023-01-17T23:14:16.738Z,91939.63
2023-01-17T23:17:03.568Z,91938.25
2023-01-17T23:19:34.839Z,91934.78
2023-01-17T23:22:19.299Z,91940.69
2023-01-17T23:24:50.333Z,91928.88
2023-01-17T23:27:37.714Z,91935.28
2023-01-17T23:30:07.688Z,91933.94
2023-01-17T23:32:35.807Z,91931.53
2023-01-17T23:35:03.819Z,91937.94
2023-01-17T23:37:50.385Z,91934.75
2023-01-17T23:40:19.481Z,91941.94
2023-01-17T23:43:04.790Z,91943.28
2023-01-17T23:45:35.784Z,91947.00
2023-01-17T23:48:05.145Z,91934.72
2023-01-17T23:50:33.330Z,91945.41
2023-01-17T23:53:07.000Z,91948.34
2023-01-17T23:55:37.308Z,91945.94
2023-01-17T23:58:05.433Z,91948.31
